createdAt,value
2023-03-02T00:01:10.316Z,97.00
2023-03-02T00:03:39.399Z,96.80
2023-03-02T00:06:07.292Z,97.00
2023-03-02T00:08:35.656Z,96.90
2023-03-02T00:11:02.858Z,96.30
2023-03-02T00:13:30.606Z,97.00
2023-03-02T00:15:57.530Z,97.10
2023-03-02T00:18:24.361Z,96.20
2023-03-02T00:20:51.071Z,96.60
2023-03-02T00:23:17.793Z,97.20
2023-03-02T00:25:46.418Z,97.20
2023-03-02T00:28:13.179Z,97.20
2023-03-02T00:30:40.371Z,96.90
2023-03-02T00:33:07.270Z,97.10
2023-03-02T00:35:37.491Z,97.40
2023-03-02T00:38:04.256Z,97.20
2023-03-02T00:40:30.983Z,97.10
2023-03-02T00:42:59.038Z,97.70
2023-03-02T00:45:25.902Z,96.90
2023-03-02T00:47:52.659Z,97.10
2023-03-02T00:50:19.541Z,96.50
2023-03-02T00:52:46.245Z,97.10
2023-03-02T00:55:12.962Z,96.80
2023-03-02T00:57:39.717Z,96.60
2023-03-02T01:00:10.367Z,97.10
2023-03-02T01:02:37.218Z,96.90
2023-03-02T01:05:04.589Z,97.30
2023-03-02T01:07:31.307Z,97.40
2023-03-02T01:09:58.168Z,97.50
2023-03-02T01:12:24.887Z,97.90
2023-03-02T01:14:51.611Z,97.60
2023-03-02T01:17:19.746Z,97.30
2023-03-02T01:19:46.514Z,97.30
2023-03-02T01:22:13.234Z,97.00
2023-03-02T01:24:40.134Z,97.10
2023-03-02T01:27:06.888Z,97.30
2023-03-02T01:29:33.684Z,97.10
2023-03-02T01:32:00.561Z,97.40
2023-03-02T01:34:28.934Z,97.90
2023-03-02T01:36:55.679Z,96.80
2023-03-02T01:39:22.563Z,97.80
2023-03-02T01:41:51.127Z,98.10
2023-03-02T01:44:35.693Z,97.80
2023-03-02T01:47:03.717Z,97.10
2023-03-02T01:49:35.334Z,97.00
2023-03-02T01:52:02.378Z,96.80
2023-03-02T01:54:29.204Z,97.50
2023-03-02T01:57:00.224Z,97.40
2023-03-02T01:59:29.148Z,97.50
2023-03-02T02:01:58.737Z,97.40
2023-03-02T02:04:28.772Z,97.90
2023-03-02T02:07:00.618Z,97.80
2023-03-02T02:09:29.984Z,97.60
2023-03-02T02:11:56.848Z,97.30
2023-03-02T02:14:24.273Z,97.10
2023-03-02T02:16:52.005Z,97.60
2023-03-02T02:19:32.212Z,98.10
2023-03-02T02:22:00.805Z,97.90
2023-03-02T02:24:32.051Z,97.70
2023-03-02T02:27:00.659Z,97.70
2023-03-02T02:29:31.020Z,98.00
2023-03-02T02:32:02.226Z,98.80
2023-03-02T02:34:32.713Z,98.70
2023-03-02T02:37:06.240Z,98.60
2023-03-02T02:39:36.331Z,98.60
2023-03-02T02:42:08.130Z,98.70
2023-03-02T02:44:34.877Z,98.80
2023-03-02T02:47:01.664Z,98.60
2023-03-02T02:49:31.955Z,98.20
2023-03-02T02:51:59.163Z,98.00
2023-03-02T02:54:27.881Z,99.00
2023-03-02T02:56:55.776Z,98.70
2023-03-02T02:59:25.795Z,98.30
2023-03-02T03:01:52.710Z,98.90
2023-03-02T03:04:22.105Z,98.80
2023-03-02T03:06:54.234Z,99.30
2023-03-02T03:09:21.255Z,99.40
2023-03-02T03:11:50.312Z,99.10
2023-03-02T03:14:19.111Z,99.70
2023-03-02T03:16:48.819Z,99.90
2023-03-02T03:19:19.833Z,99.90
2023-03-02T03:21:49.516Z,99.70
2023-03-02T03:24:16.305Z,99.30
2023-03-02T03:26:43.876Z,99.50
2023-03-02T03:29:10.675Z,99.70
2023-03-02T03:31:37.630Z,99.90
2023-03-02T03:34:06.235Z,99.90
2023-03-02T03:36:34.476Z,99.70
2023-03-02T03:39:02.125Z,99.30
2023-03-02T03:41:28.920Z,99.10
2023-03-02T03:43:55.753Z,98.50
2023-03-02T03:46:23.860Z,98.90
2023-03-02T03:48:50.682Z,98.70
2023-03-02T03:51:18.918Z,99.00
2023-03-02T03:53:45.685Z,98.70
2023-03-02T03:56:12.424Z,99.00
2023-03-02T03:58:39.515Z,98.80
2023-03-02T04:01:06.367Z,99.20
2023-03-02T04:03:33.134Z,99.30
2023-03-02T04:05:59.981Z,99.40
2023-03-02T04:08:28.099Z,99.50
2023-03-02T04:10:54.855Z,99.70
2023-03-02T04:13:21.655Z,99.90
2023-03-02T04:15:48.493Z,99.90
2023-03-02T04:18:15.241Z,99.80
2023-03-02T04:20:42.081Z,99.40
2023-03-02T04:23:08.828Z,99.60
2023-03-02T04:25:36.891Z,99.00
2023-03-02T04:28:03.714Z,99.30
2023-03-02T04:30:30.423Z,98.70
2023-03-02T04:32:57.240Z,99.20
2023-03-02T04:35:24.383Z,98.90
2023-03-02T04:37:51.153Z,98.60
2023-03-02T04:40:18.086Z,98.20
2023-03-02T04:42:46.484Z,97.70
2023-03-02T04:45:13.813Z,97.80
2023-03-02T04:47:40.965Z,97.70
2023-03-02T04:50:08.970Z,98.10
2023-03-02T04:52:35.827Z,98.30
2023-03-02T04:55:03.930Z,98.10
2023-03-02T04:57:30.708Z,98.40
2023-03-02T04:59:58.891Z,98.60
2023-03-02T05:02:25.839Z,98.80
2023-03-02T05:04:52.591Z,98.90
2023-03-02T05:07:19.313Z,98.70
2023-03-02T05:09:46.097Z,99.00
2023-03-02T05:12:12.895Z,98.90
2023-03-02T05:14:39.572Z,98.80
2023-03-02T05:17:07.604Z,98.20
2023-03-02T05:19:34.335Z,98.30
2023-03-02T05:22:01.059Z,98.60
2023-03-02T05:24:27.841Z,98.70
2023-03-02T05:26:54.701Z,99.00
2023-03-02T05:29:21.474Z,99.90
2023-03-02T05:31:48.657Z,99.90
2023-03-02T05:34:17.697Z,99.90
2023-03-02T05:36:45.238Z,99.90
2023-03-02T05:39:12.768Z,99.90
2023-03-02T05:41:39.933Z,99.90
2023-03-02T05:44:07.907Z,99.90
2023-03-02T05:46:35.215Z,99.60
2023-03-02T05:49:02.284Z,99.30
2023-03-02T05:51:30.367Z,99.00
2023-03-02T05:53:57.090Z,98.80
2023-03-02T05:56:23.858Z,99.00
2023-03-02T05:58:50.565Z,98.80
2023-03-02T06:01:17.333Z,98.90
2023-03-02T06:03:44.182Z,99.00
2023-03-02T06:06:11.165Z,99.30
2023-03-02T06:08:39.416Z,99.80
2023-03-02T06:11:06.182Z,99.40
2023-03-02T06:13:32.990Z,99.90
2023-03-02T06:15:59.692Z,99.90
2023-03-02T06:18:26.439Z,99.90
2023-03-02T06:20:53.159Z,99.90
2023-03-02T06:23:19.882Z,99.90
2023-03-02T06:25:47.934Z,99.90
2023-03-02T06:28:15.256Z,99.90
2023-03-02T06:30:42.033Z,99.90
2023-03-02T06:33:08.732Z,99.90
2023-03-02T06:35:35.642Z,99.90
2023-03-02T06:38:02.731Z,99.90
2023-03-02T06:40:29.802Z,99.90
2023-03-02T06:42:57.844Z,99.30
2023-03-02T06:45:24.571Z,98.90
2023-03-02T06:47:51.266Z,99.00
2023-03-02T06:50:18.056Z,98.90
2023-03-02T06:52:44.749Z,99.90
2023-03-02T06:55:11.512Z,99.90
2023-03-02T06:57:38.290Z,99.90
2023-03-02T07:00:09.816Z,99.90
2023-03-02T07:02:36.933Z,99.90
2023-03-02T07:05:04.205Z,99.90
2023-03-02T07:07:30.914Z,99.90
2023-03-02T07:09:57.626Z,99.90
2023-03-02T07:12:24.606Z,99.90
2023-03-02T07:14:51.305Z,99.90
2023-03-02T07:17:19.375Z,99.90
2023-03-02T07:19:46.058Z,99.90
2023-03-02T07:22:12.824Z,99.60
2023-03-02T07:24:39.701Z,99.90
2023-03-02T07:27:06.519Z,99.90
2023-03-02T07:29:33.209Z,99.60
2023-03-02T07:32:00.138Z,97.70
2023-03-02T07:34:28.415Z,96.90
2023-03-02T07:36:55.102Z,95.60
2023-03-02T07:39:21.888Z,95.00
2023-03-02T07:41:48.653Z,94.40
2023-03-02T07:44:15.374Z,94.10
2023-03-02T07:46:42.156Z,93.90
2023-03-02T07:49:08.906Z,93.60
2023-03-02T07:51:36.948Z,93.60
2023-03-02T07:54:03.926Z,93.50
2023-03-02T07:56:30.721Z,93.40
2023-03-02T07:58:57.487Z,93.30
2023-03-02T08:01:24.415Z,93.50
2023-03-02T08:03:51.193Z,93.40
2023-03-02T08:06:17.934Z,93.50
2023-03-02T08:08:46.077Z,93.50
2023-03-02T08:11:15.236Z,93.40
2023-03-02T08:13:42.321Z,93.50
2023-03-02T08:16:10.913Z,93.40
2023-03-02T08:18:38.465Z,94.00
2023-03-02T08:21:10.885Z,94.00
2023-03-02T08:23:37.644Z,94.30
2023-03-02T08:26:05.766Z,94.70
2023-03-02T08:28:33.161Z,94.80
2023-03-02T08:31:01.511Z,95.40
2023-03-02T08:33:29.389Z,95.90
2023-03-02T08:35:57.176Z,95.80
2023-03-02T08:38:24.500Z,95.80
2023-03-02T08:40:51.655Z,96.00
2023-03-02T08:43:20.402Z,96.40
2023-03-02T08:45:51.305Z,96.40
2023-03-02T08:48:18.070Z,97.10
2023-03-02T08:50:44.774Z,96.50
2023-03-02T08:53:11.475Z,97.00
2023-03-02T08:55:38.213Z,97.20
2023-03-02T08:58:04.952Z,97.20
2023-03-02T09:00:32.985Z,97.50
2023-03-02T09:02:59.652Z,97.50
2023-03-02T09:05:26.387Z,98.00
2023-03-02T09:07:53.116Z,97.90
2023-03-02T09:10:19.853Z,97.90
2023-03-02T09:12:46.585Z,98.10
2023-03-02T09:15:13.282Z,98.20
2023-03-02T09:17:41.339Z,98.60
2023-03-02T09:20:09.738Z,98.70
2023-03-02T09:22:36.455Z,98.30
2023-03-02T09:25:03.264Z,98.50
2023-03-02T09:27:30.016Z,98.70
2023-03-02T09:29:57.002Z,98.50
2023-03-02T09:32:24.012Z,98.50
2023-03-02T09:34:52.096Z,98.90
2023-03-02T09:37:18.834Z,99.90
2023-03-02T09:39:45.771Z,99.40
2023-03-02T09:42:41.614Z,99.00
2023-03-02T09:45:20.276Z,99.40
2023-03-02T09:47:55.441Z,99.30
2023-03-02T09:50:30.007Z,99.50
2023-03-02T09:53:37.484Z,99.60
2023-03-02T09:56:09.483Z,99.70
2023-03-02T09:58:38.682Z,99.90
2023-03-02T10:01:15.498Z,99.90
2023-03-02T10:03:50.946Z,99.90
2023-03-02T10:06:19.019Z,99.90
2023-03-02T10:08:45.935Z,99.90
2023-03-02T10:11:20.942Z,99.90
2023-03-02T10:13:51.552Z,99.90
2023-03-02T10:16:27.802Z,99.90
2023-03-02T10:19:05.440Z,99.90
2023-03-02T10:21:39.042Z,99.90
2023-03-02T10:24:19.444Z,99.90
2023-03-02T10:26:50.500Z,99.90
2023-03-02T10:29:31.339Z,99.90
2023-03-02T10:32:01.760Z,99.90
2023-03-02T10:34:30.411Z,99.90
2023-03-02T10:36:58.820Z,99.90
2023-03-02T10:39:25.574Z,99.90
2023-03-02T10:41:58.177Z,99.90
2023-03-02T10:44:29.436Z,99.90
2023-03-02T10:46:56.473Z,99.90
2023-03-02T10:49:29.964Z,99.90
2023-03-02T10:52:07.400Z,99.90
2023-03-02T10:54:35.292Z,99.90
2023-03-02T10:57:04.847Z,99.90
2023-03-02T10:59:43.257Z,99.90
2023-03-02T11:02:16.455Z,99.90
2023-03-02T11:04:43.305Z,99.90
2023-03-02T11:07:16.307Z,99.90
2023-03-02T11:09:43.171Z,99.90
2023-03-02T11:12:15.830Z,99.90
2023-03-02T11:14:42.672Z,99.90
2023-03-02T11:17:30.708Z,99.90
2023-03-02T11:19:57.873Z,99.90
2023-03-02T11:22:35.440Z,99.90
2023-03-02T11:25:06.616Z,99.90
2023-03-02T11:27:38.986Z,99.90
2023-03-02T11:30:13.038Z,99.90
2023-03-02T11:32:42.687Z,99.90
2023-03-02T11:35:13.495Z,99.90
2023-03-02T11:37:47.955Z,99.90
2023-03-02T11:40:21.850Z,99.90
2023-03-02T11:42:50.012Z,99.90
2023-03-02T11:45:20.228Z,99.90
2023-03-02T11:48:02.159Z,99.90
2023-03-02T11:50:30.703Z,99.90
2023-03-02T11:53:01.478Z,99.90
2023-03-02T11:55:31.626Z,99.90
2023-03-02T11:58:02.825Z,99.90
2023-03-02T12:00:33.335Z,99.90
2023-03-02T12:03:02.016Z,99.90
2023-03-02T12:05:31.312Z,99.90
2023-03-02T12:08:01.312Z,99.90
2023-03-02T12:10:33.921Z,99.90
2023-03-02T12:13:12.574Z,99.90
2023-03-02T12:15:40.821Z,99.90
2023-03-02T12:18:51.584Z,99.90
2023-03-02T12:21:19.830Z,99.90
2023-03-02T12:24:01.333Z,99.90
2023-03-02T12:26:32.343Z,99.90
2023-03-02T12:29:02.740Z,99.90
2023-03-02T12:31:45.452Z,99.90
2023-03-02T12:34:31.353Z,99.90
2023-03-02T12:37:02.033Z,99.90
2023-03-02T12:39:45.584Z,99.90
2023-03-02T12:42:34.744Z,99.90
2023-03-02T12:45:10.734Z,99.90
2023-03-02T12:47:41.290Z,99.90
2023-03-02T12:50:18.256Z,99.90
2023-03-02T12:52:45.091Z,99.90
2023-03-02T12:55:20.042Z,99.90
2023-03-02T12:57:50.511Z,99.90
2023-03-02T13:00:20.298Z,99.90
2023-03-02T13:02:49.991Z,99.90
2023-03-02T13:05:20.797Z,99.90
2023-03-02T13:07:56.166Z,99.90
2023-03-02T13:10:29.246Z,99.90
2023-03-02T13:12:57.468Z,99.90
2023-03-02T13:15:24.223Z,99.90
2023-03-02T13:17:55.634Z,99.90
2023-03-02T13:20:25.047Z,99.90
2023-03-02T13:22:52.188Z,99.90
2023-03-02T13:25:27.906Z,99.90
2023-03-02T13:27:56.892Z,99.90
2023-03-02T13:30:26.936Z,99.90
2023-03-02T13:32:57.596Z,99.90
2023-03-02T13:35:27.972Z,99.90
2023-03-02T13:37:57.490Z,99.90
2023-03-02T13:40:42.050Z,99.90
2023-03-02T13:43:36.662Z,99.90
2023-03-02T13:46:05.523Z,99.90
2023-03-02T13:48:32.965Z,99.90
2023-03-02T13:51:01.709Z,99.90
2023-03-02T13:53:31.298Z,99.90
2023-03-02T13:55:59.814Z,99.90
2023-03-02T13:58:27.386Z,99.90
2023-03-02T14:00:54.222Z,99.90
2023-03-02T14:03:24.698Z,99.90
2023-03-02T14:05:52.151Z,99.90
2023-03-02T14:08:18.885Z,99.90
2023-03-02T14:10:46.278Z,99.90
2023-03-02T14:13:17.387Z,99.90
2023-03-02T14:15:48.476Z,99.90
2023-03-02T14:18:29.327Z,99.90
2023-03-02T14:39:47.252Z,99.90
2023-03-02T14:42:16.009Z,99.90
2023-03-02T14:44:45.832Z,99.90
2023-03-02T14:47:12.888Z,99.90
2023-03-02T14:49:40.173Z,99.90
2023-03-02T14:52:11.050Z,99.90
2023-03-02T14:54:41.262Z,99.90
2023-03-02T14:57:16.800Z,99.90
2023-03-02T14:59:44.847Z,99.90
2023-03-02T15:02:24.442Z,99.90
2023-03-02T15:04:53.706Z,99.90
2023-03-02T15:07:21.724Z,99.90
2023-03-02T15:09:48.851Z,99.90
2023-03-02T15:12:15.566Z,99.90
2023-03-02T15:14:43.604Z,99.90
2023-03-02T15:17:10.978Z,99.90
2023-03-02T15:19:37.680Z,99.90
2023-03-02T15:22:04.645Z,99.90
2023-03-02T15:24:33.356Z,99.90
2023-03-02T15:27:01.396Z,99.90
2023-03-02T15:29:28.272Z,99.90
2023-03-02T15:31:56.418Z,99.90
2023-03-02T15:34:23.282Z,99.90
2023-03-02T15:36:49.991Z,99.90
2023-03-02T15:39:16.904Z,99.90
2023-03-02T15:41:43.740Z,99.90
2023-03-02T15:44:17.295Z,99.90
2023-03-02T15:46:44.066Z,99.90
2023-03-02T15:49:12.539Z,99.90
2023-03-02T15:51:39.230Z,99.90
2023-03-02T15:54:05.991Z,99.90
2023-03-02T15:56:38.969Z,99.90
2023-03-02T15:59:10.360Z,99.90
2023-03-02T16:01:37.390Z,99.90
2023-03-02T16:04:04.159Z,99.90
2023-03-02T16:06:32.240Z,99.90
2023-03-02T16:08:58.961Z,99.90
2023-03-02T16:11:25.716Z,99.90
2023-03-02T16:13:52.656Z,99.90
2023-03-02T16:16:20.801Z,99.90
2023-03-02T16:18:50.328Z,99.90
2023-03-02T16:21:17.190Z,99.90
2023-03-02T16:23:45.373Z,99.90
2023-03-02T16:26:15.154Z,99.90
2023-03-02T16:28:42.261Z,99.90
2023-03-02T16:31:11.205Z,99.90
2023-03-02T16:33:38.135Z,99.90
2023-03-02T16:36:05.397Z,99.90
2023-03-02T16:38:32.272Z,99.90
2023-03-02T16:41:00.916Z,99.90
2023-03-02T16:43:27.791Z,99.90
2023-03-02T16:45:54.901Z,99.90
2023-03-02T16:48:22.262Z,99.90
2023-03-02T16:50:54.807Z,99.90
2023-03-02T16:53:21.663Z,99.90
2023-03-02T16:55:49.116Z,99.90
2023-03-02T16:58:17.167Z,99.90
2023-03-02T17:00:44.021Z,99.90
2023-03-02T17:03:10.784Z,99.90
2023-03-02T17:05:37.502Z,99.90
2023-03-02T17:08:04.547Z,99.90
2023-03-02T17:10:32.347Z,99.90
2023-03-02T17:12:59.068Z,99.90
2023-03-02T17:15:27.343Z,99.90
2023-03-02T17:17:54.137Z,99.90
2023-03-02T17:20:21.489Z,99.90
2023-03-02T17:22:48.205Z,99.90
2023-03-02T17:25:15.405Z,99.90
2023-03-02T17:27:42.244Z,99.90
2023-03-02T17:30:10.195Z,99.90
2023-03-02T17:32:38.744Z,99.90
2023-03-02T17:35:06.694Z,99.90
2023-03-02T17:37:34.168Z,99.90
2023-03-02T17:40:01.478Z,99.90
2023-03-02T17:42:28.205Z,99.90
2023-03-02T17:44:55.001Z,99.90
2023-03-02T17:47:21.746Z,99.90
2023-03-02T17:49:49.825Z,99.90
2023-03-02T17:52:17.991Z,99.90
2023-03-02T17:54:45.031Z,99.90
2023-03-02T17:57:13.180Z,99.90
2023-03-02T17:59:39.920Z,99.90
2023-03-02T18:02:06.684Z,99.90
2023-03-02T18:04:34.100Z,99.90
2023-03-02T18:07:02.201Z,99.90
2023-03-02T18:09:28.953Z,99.90
2023-03-02T18:11:55.654Z,99.90
2023-03-02T18:14:22.611Z,99.90
2023-03-02T18:16:49.293Z,99.90
2023-03-02T18:19:16.064Z,99.90
2023-03-02T18:21:42.788Z,99.90
2023-03-02T18:24:11.558Z,99.90
2023-03-02T18:26:38.316Z,99.90
2023-03-02T18:29:05.250Z,99.90
2023-03-02T18:31:32.446Z,99.90
2023-03-02T18:33:59.586Z,99.90
2023-03-02T18:36:26.381Z,99.90
2023-03-02T18:38:53.127Z,99.90
2023-03-02T18:41:21.925Z,99.90
2023-03-02T18:43:49.087Z,99.90
2023-03-02T18:46:21.020Z,99.90
2023-03-02T18:48:47.815Z,99.90
2023-03-02T18:51:14.530Z,99.90
2023-03-02T18:53:41.285Z,99.90
2023-03-02T18:56:08.010Z,99.90
2023-03-02T18:58:36.229Z,99.90
2023-03-02T19:01:03.649Z,99.90
2023-03-02T19:03:30.994Z,99.90
2023-03-02T19:05:58.290Z,99.90
2023-03-02T19:08:25.611Z,99.90
2023-03-02T19:10:55.150Z,99.90
2023-03-02T19:13:22.408Z,99.90
2023-03-02T19:15:54.601Z,99.90
2023-03-02T19:18:26.095Z,99.90
2023-03-02T19:20:52.870Z,99.90
2023-03-02T19:23:19.661Z,99.90
2023-03-02T19:25:46.772Z,99.90
2023-03-02T19:28:14.077Z,99.90
2023-03-02T19:30:41.214Z,99.90
2023-03-02T19:33:09.304Z,99.90
2023-03-02T19:35:36.867Z,99.90
2023-03-02T19:38:03.824Z,99.90
2023-03-02T19:40:30.979Z,99.50
2023-03-02T19:42:58.081Z,99.60
2023-03-02T19:45:26.409Z,99.70
2023-03-02T19:47:53.350Z,99.50
2023-03-02T19:50:23.065Z,99.70
2023-03-02T19:52:50.595Z,99.40
2023-03-02T19:55:17.353Z,99.30
2023-03-02T19:57:44.095Z,99.30
2023-03-02T20:00:15.192Z,99.10
2023-03-02T20:02:42.100Z,98.90
2023-03-02T20:05:10.224Z,98.40
2023-03-02T20:07:41.567Z,98.50
2023-03-02T20:10:10.010Z,98.30
2023-03-02T20:12:37.114Z,97.90
2023-03-02T20:15:04.726Z,97.90
2023-03-02T20:17:31.578Z,98.10
2023-03-02T20:19:58.306Z,98.00
2023-03-02T20:22:25.113Z,98.00
2023-03-02T20:24:53.224Z,98.20
2023-03-02T20:27:19.935Z,98.30
2023-03-02T20:29:47.787Z,99.00
2023-03-02T20:32:15.599Z,98.70
2023-03-02T20:34:43.400Z,98.70
2023-03-02T20:37:13.368Z,98.80
2023-03-02T20:39:42.119Z,98.70
2023-03-02T20:42:11.229Z,98.30
2023-03-02T20:44:38.386Z,98.30
2023-03-02T20:47:08.630Z,98.30
2023-03-02T20:49:36.463Z,98.30
2023-03-02T20:52:03.716Z,98.20
2023-03-02T20:54:32.955Z,98.20
2023-03-02T20:57:00.040Z,98.40
2023-03-02T20:59:28.335Z,98.40
2023-03-02T21:01:55.295Z,98.40
2023-03-02T21:04:22.122Z,98.50
2023-03-02T21:06:48.935Z,98.20
2023-03-02T21:09:16.655Z,98.50
2023-03-02T21:11:44.124Z,98.30
2023-03-02T21:14:11.151Z,98.60
2023-03-02T21:16:40.834Z,98.50
2023-03-02T21:19:10.937Z,99.10
2023-03-02T21:21:41.680Z,98.70
2023-03-02T21:24:09.789Z,98.70
2023-03-02T21:26:36.541Z,98.70
2023-03-02T21:29:03.557Z,98.80
2023-03-02T21:31:30.480Z,98.80
2023-03-02T21:33:58.639Z,99.00
2023-03-02T21:36:26.021Z,99.00
2023-03-02T21:38:52.988Z,99.00
2023-03-02T21:41:20.003Z,99.00
2023-03-02T21:43:46.730Z,98.80
2023-03-02T21:46:16.381Z,99.00
2023-03-02T21:48:43.336Z,98.70
2023-03-02T21:51:12.756Z,98.20
2023-03-02T21:53:39.909Z,98.20
2023-03-02T21:56:07.882Z,98.10
2023-03-02T21:58:35.062Z,98.30
2023-03-02T22:01:01.801Z,98.40
2023-03-02T22:03:28.529Z,98.30
2023-03-02T22:05:55.258Z,98.50
2023-03-02T22:08:23.319Z,98.80
2023-03-02T22:10:51.294Z,98.60
2023-03-02T22:13:23.004Z,98.00
2023-03-02T22:15:55.625Z,97.80
2023-03-02T22:18:22.506Z,97.90
2023-03-02T22:20:51.251Z,97.80
2023-03-02T22:23:20.534Z,98.00
2023-03-02T22:25:50.704Z,97.90
2023-03-02T22:28:18.326Z,97.70
2023-03-02T22:30:45.319Z,97.60
2023-03-02T22:33:18.603Z,97.70
2023-03-02T22:35:45.806Z,97.70
2023-03-02T22:38:18.633Z,97.20
2023-03-02T22:40:45.396Z,97.60
2023-03-02T22:43:19.585Z,98.10
2023-03-02T22:45:46.371Z,97.40
2023-03-02T22:48:14.827Z,98.00
2023-03-02T22:50:44.012Z,98.30
2023-03-02T22:53:25.497Z,98.50
2023-03-02T22:55:57.522Z,98.00
2023-03-02T22:58:30.799Z,97.60
2023-03-02T23:00:58.438Z,97.40
2023-03-02T23:03:35.480Z,97.40
2023-03-02T23:06:02.201Z,97.00
2023-03-02T23:08:29.913Z,97.30
2023-03-02T23:10:58.231Z,97.20
2023-03-02T23:13:38.266Z,97.20
2023-03-02T23:16:14.359Z,97.40
2023-03-02T23:18:41.125Z,98.10
2023-03-02T23:21:14.884Z,97.80
2023-03-02T23:23:41.578Z,97.70
2023-03-02T23:26:08.399Z,97.40
2023-03-02T23:28:36.430Z,97.00
2023-03-02T23:31:03.187Z,97.10
2023-03-02T23:33:30.001Z,97.20
2023-03-02T23:35:56.737Z,97.30
2023-03-02T23:38:23.439Z,97.30
2023-03-02T23:40:50.194Z,97.00
2023-03-02T23:43:16.876Z,96.90
2023-03-02T23:45:44.974Z,96.70
2023-03-02T23:48:11.752Z,96.80
2023-03-02T23:50:38.445Z,96.80
2023-03-02T23:53:05.185Z,97.00
2023-03-02T23:55:32.078Z,96.90
2023-03-02T23:57:58.780Z,97.00
